Time;durP1;ratioP1;P1;durP2;ratioP2;P2;SDS_P1;SDS_P2;PMS_P1;PMS_P2;Temp;Humidity;BMP_temperature;BMP_pressure;BME280_temperature;BME280_humidity;BME280_pressure;Samples;Min_cycle;Max_cycle;Signal;HPM_P1;HPM_P2
2022/04/18 00:00:01;;;;;;;297.98;82.45;;;;;;;5.98;93.05;99338.44;344700;28;1547;-71
2022/04/18 00:00:12;;;;;;;299.37;83.50;;;;;;;5.98;93.39;99335.00;346200;28;1671;-71
2022/04/18 00:00:22;;;;;;;299.77;83.60;;;;;;;5.99;93.53;99331.50;346130;28;967;-71
2022/04/18 00:00:33;;;;;;;298.33;82.72;;;;;;;6.00;93.34;99338.41;346092;28;1611;-71
2022/04/18 00:00:43;;;;;;;299.20;83.68;;;;;;;6.00;93.15;99341.00;344677;28;1525;-71
2022/04/18 00:00:54;;;;;;;300.77;85.47;;;;;;;6.00;93.53;99331.47;344678;28;1590;-71
2022/04/18 00:01:04;;;;;;;301.97;86.40;;;;;;;5.97;93.37;99333.28;345848;28;1987;-71
2022/04/18 00:01:14;;;;;;;301.83;87.57;;;;;;;5.98;93.30;99337.59;346007;28;1393;-71
2022/04/18 00:01:25;;;;;;;302.07;87.17;;;;;;;5.98;93.41;99338.44;346250;28;1087;-71
2022/04/18 00:01:35;;;;;;;300.40;85.13;;;;;;;5.97;93.21;99333.28;344254;28;1658;-71
2022/04/18 00:01:46;;;;;;;300.45;84.60;;;;;;;5.97;93.10;99333.28;346077;28;1586;-71
2022/04/18 00:01:56;;;;;;;299.57;83.80;;;;;;;5.98;93.07;99335.00;346179;28;1374;-71
2022/04/18 00:02:07;;;;;;;298.75;83.75;;;;;;;5.98;92.88;99340.19;343452;28;1421;-71
2022/04/18 00:02:18;;;;;;;298.03;82.50;;;;;;;5.96;93.09;99341.97;344660;28;1641;-71
2022/04/18 00:02:28;;;;;;;298.33;82.13;;;;;;;5.98;93.19;99346.25;344731;28;1657;-71
2022/04/18 00:02:38;;;;;;;298.63;82.20;;;;;;;5.99;92.81;99341.91;344647;28;1570;-71
2022/04/18 00:02:49;;;;;;;297.57;82.40;;;;;;;5.98;92.68;99338.44;343316;28;1271;-71
2022/04/18 00:03:03;;;;;;;297.50;83.07;;;;;;;5.98;93.08;99335.84;343326;28;1754;-71
2022/04/18 00:03:14;;;;;;;298.08;83.25;;;;;;;5.99;93.03;99332.38;343303;28;1545;-71
2022/04/18 00:03:24;;;;;;;298.50;82.53;;;;;;;6.01;92.81;99334.91;343575;28;1792;-71
2022/04/18 00:03:34;;;;;;;297.63;81.70;;;;;;;6.01;92.97;99340.13;347825;28;1351;-71
2022/04/18 00:03:45;;;;;;;298.23;82.37;;;;;;;6.02;93.07;99331.44;345098;28;1228;-71
2022/04/18 00:03:55;;;;;;;298.55;82.82;;;;;;;6.03;93.28;99342.66;344698;28;1298;-71
2022/04/18 00:04:06;;;;;;;300.67;84.03;;;;;;;6.02;92.93;99334.03;343299;28;1180;-71
2022/04/18 00:04:17;;;;;;;300.10;83.80;;;;;;;6.02;93.35;99338.38;342048;28;1257;-71
2022/04/18 00:04:27;;;;;;;298.73;83.13;;;;;;;6.02;92.59;99341.81;343048;28;1074;-71
2022/04/18 00:04:38;;;;;;;297.50;83.43;;;;;;;6.02;92.84;99330.56;344870;28;1558;-71
2022/04/18 00:04:48;;;;;;;298.17;84.88;;;;;;;6.00;92.81;99335.81;345879;28;1392;-71
2022/04/18 00:04:59;;;;;;;299.67;86.20;;;;;;;5.98;92.70;99328.06;347553;28;856;-71
2022/04/18 00:05:09;;;;;;;299.05;84.78;;;;;;;5.98;92.55;99345.38;344787;28;1064;-71
2022/04/18 00:05:20;;;;;;;297.80;83.95;;;;;;;5.98;92.54;99335.00;347091;28;1196;-71
2022/04/18 00:05:33;;;;;;;297.13;83.57;;;;;;;5.98;92.48;99332.41;347391;28;1864;-71
2022/04/18 00:05:43;;;;;;;298.00;84.57;;;;;;;6.00;92.54;99333.22;344619;28;1508;-71
2022/04/18 00:05:54;;;;;;;298.42;84.35;;;;;;;6.00;92.46;99334.06;344717;28;1269;-71
2022/04/18 00:06:04;;;;;;;298.37;83.77;;;;;;;5.98;92.42;99328.06;343196;28;1673;-72
2022/04/18 00:06:14;;;;;;;298.90;83.55;;;;;;;5.99;92.64;99334.97;345991;28;1780;-72
2022/04/18 00:06:25;;;;;;;299.60;84.53;;;;;;;5.97;92.28;99334.16;347446;28;1391;-72
2022/04/18 00:06:36;;;;;;;299.30;84.22;;;;;;;5.99;92.32;99334.09;348857;28;1539;-72
2022/04/18 00:06:46;;;;;;;298.48;83.05;;;;;;;5.98;92.20;99335.00;345972;28;1597;-72
2022/04/18 00:06:57;;;;;;;298.40;83.17;;;;;;;5.98;92.10;99335.00;344865;28;860;-72
2022/04/18 00:07:07;;;;;;;298.85;84.05;;;;;;;5.99;92.24;99336.72;344765;28;967;-72
2022/04/18 00:07:18;;;;;;;299.73;85.40;;;;;;;5.98;92.24;99332.41;344619;28;1689;-72
2022/04/18 00:07:28;;;;;;;298.70;84.60;;;;;;;5.98;92.28;99332.41;343520;28;972;-72
2022/04/18 00:07:38;;;;;;;300.13;84.63;;;;;;;5.98;92.28;99329.81;346119;28;1153;-72
2022/04/18 00:07:49;;;;;;;299.83;84.50;;;;;;;5.99;92.23;99334.97;345474;28;1684;-72
2022/04/18 00:07:59;;;;;;;300.83;85.30;;;;;;;6.00;92.27;99328.03;344776;28;1716;-72
2022/04/18 00:08:10;;;;;;;299.70;84.75;;;;;;;6.00;92.49;99328.88;343294;28;3580;-72
2022/04/18 00:08:20;;;;;;;299.23;83.97;;;;;;;5.99;92.50;99326.31;341508;28;5152;-72
2022/04/18 00:08:30;;;;;;;299.30;84.45;;;;;;;6.00;92.62;99322.81;345768;28;2898;-72
2022/04/18 00:08:41;;;;;;;299.73;84.03;;;;;;;6.00;93.02;99338.41;346819;28;2584;-72
2022/04/18 00:08:51;;;;;;;299.35;84.45;;;;;;;6.00;92.57;99328.03;347172;28;3159;-72
2022/04/18 00:09:03;;;;;;;298.87;84.13;;;;;;;6.01;92.92;99329.72;344470;28;1967;-72
2022/04/18 00:09:13;;;;;;;298.90;85.45;;;;;;;6.01;93.11;99327.13;341271;28;1268;-70
2022/04/18 00:09:24;;;;;;;300.55;86.35;;;;;;;6.02;93.12;99331.44;346112;28;1298;-70
2022/04/18 00:09:34;;;;;;;300.13;86.90;;;;;;;6.03;93.18;99327.94;348132;28;1855;-71
2022/04/18 00:09:45;;;;;;;300.07;86.83;;;;;;;6.04;92.83;99328.78;349090;28;952;-71
2022/04/18 00:09:55;;;;;;;299.60;85.72;;;;;;;6.04;93.29;99334.00;344704;28;1471;-71
2022/04/18 00:10:06;;;;;;;300.10;85.40;;;;;;;6.05;93.13;99330.50;344779;28;1606;-71
2022/04/18 00:10:16;;;;;;;300.67;85.28;;;;;;;6.06;93.43;99327.84;347354;28;1648;-70
2022/04/18 00:10:26;;;;;;;300.00;85.20;;;;;;;6.05;92.85;99328.75;346218;28;839;-70
2022/04/18 00:10:37;;;;;;;300.33;84.68;;;;;;;6.05;93.04;99333.94;346016;28;1482;-70
2022/04/18 00:10:49;;;;;;;300.40;85.60;;;;;;;6.04;92.59;99323.59;346125;28;1600;-70
2022/04/18 00:10:59;;;;;;;299.27;84.97;;;;;;;6.04;93.00;99324.44;343413;28;1674;-70
2022/04/18 00:11:10;;;;;;;298.60;83.63;;;;;;;6.04;93.03;99329.66;342538;28;1538;-70
2022/04/18 00:11:20;;;;;;;298.20;83.17;;;;;;;6.03;93.06;99325.34;344496;28;1168;-70
2022/04/18 00:11:31;;;;;;;298.30;83.95;;;;;;;6.05;92.92;99330.50;344708;28;1675;-70
2022/04/18 00:11:41;;;;;;;299.93;84.83;;;;;;;6.03;92.89;99320.16;346044;28;1933;-71
2022/04/18 00:11:52;;;;;;;301.17;85.70;;;;;;;6.04;92.86;99326.19;346156;28;1649;-71
2022/04/18 00:12:02;;;;;;;302.73;85.43;;;;;;;6.05;92.92;99326.16;344990;28;1884;-71
2022/04/18 00:12:13;;;;;;;301.70;85.15;;;;;;;6.06;92.82;99330.47;342177;28;866;-71
2022/04/18 00:12:23;;;;;;;300.10;84.10;;;;;;;6.05;93.11;99320.97;343254;28;1536;-70
2022/04/18 00:12:34;;;;;;;298.50;83.00;;;;;;;6.06;93.11;99327.84;343315;28;1063;-71
2022/04/18 00:12:44;;;;;;;298.38;82.75;;;;;;;6.03;92.80;99321.91;345957;28;1716;-71
2022/04/18 00:12:54;;;;;;;299.47;84.10;;;;;;;6.03;92.91;99325.34;344442;28;2124;-71
2022/04/18 00:13:05;;;;;;;300.55;86.22;;;;;;;6.03;93.04;99322.75;345053;28;1198;-71
2022/04/18 00:13:15;;;;;;;300.63;86.57;;;;;;;6.04;93.19;99323.59;341626;28;1369;-69
2022/04/18 00:13:26;;;;;;;299.25;84.97;;;;;;;6.05;93.22;99330.50;343519;28;1021;-70
2022/04/18 00:13:36;;;;;;;298.40;83.03;;;;;;;6.04;93.40;99324.44;343326;28;1328;-70
2022/04/18 00:13:46;;;;;;;298.77;83.53;;;;;;;6.04;93.74;99328.78;344782;28;1026;-70
2022/04/18 00:13:57;;;;;;;299.30;84.10;;;;;;;6.01;93.79;99321.94;344854;28;931;-70
2022/04/18 00:14:08;;;;;;;300.43;84.90;;;;;;;6.01;93.25;99321.94;344525;28;1655;-71
2022/04/18 00:14:19;;;;;;;300.90;84.25;;;;;;;5.99;93.52;99329.78;343368;28;1850;-71
2022/04/18 00:14:29;;;;;;;300.70;84.40;;;;;;;6.00;93.48;99322.81;343339;28;1786;-71
2022/04/18 00:14:40;;;;;;;300.92;84.93;;;;;;;6.00;93.33;99318.47;347548;28;890;-71
2022/04/18 00:14:50;;;;;;;301.03;85.27;;;;;;;6.01;93.00;99324.53;347446;28;1244;-71
2022/04/18 00:15:00;;;;;;;301.27;84.97;;;;;;;6.01;92.97;99329.72;346645;28;1637;-71
2022/04/18 00:15:11;;;;;;;298.37;84.13;;;;;;;6.00;93.11;99328.88;346316;28;923;-71
2022/04/18 00:15:23;;;;;;;298.65;85.35;;;;;;;6.02;93.46;99326.25;342870;28;1469;-71
2022/04/18 00:15:34;;;;;;;296.92;83.80;;;;;;;6.03;93.17;99320.16;344732;28;1694;-71
2022/04/18 00:15:44;;;;;;;299.52;83.78;;;;;;;6.04;93.46;99329.66;347391;28;1679;-71
2022/04/18 00:15:54;;;;;;;298.33;82.23;;;;;;;6.05;93.32;99326.16;346103;28;1297;-71
2022/04/18 00:16:05;;;;;;;300.25;84.80;;;;;;;6.06;93.53;99329.59;343830;28;1776;-71
2022/04/18 00:16:15;;;;;;;301.13;85.70;;;;;;;6.07;93.65;99323.47;342480;28;1292;-71
2022/04/18 00:16:26;;;;;;;301.35;85.78;;;;;;;6.08;93.51;99325.19;346016;28;1500;-71
2022/04/18 00:16:36;;;;;;;300.23;83.53;;;;;;;6.07;93.44;99326.06;346318;28;1586;-72
2022/04/18 00:16:46;;;;;;;296.33;81.50;;;;;;;6.06;93.52;99317.47;344777;28;1492;-72
2022/04/18 00:16:57;;;;;;;295.33;81.23;;;;;;;6.08;93.74;99320.84;344720;28;1223;-71
2022/04/18 00:17:09;;;;;;;296.58;82.72;;;;;;;6.08;93.10;99326.03;344688;28;1839;-71
2022/04/18 00:17:19;;;;;;;298.76;83.72;;;;;;;6.08;93.67;99325.19;345389;28;3412;-71
2022/04/18 00:17:30;;;;;;;299.23;84.63;;;;;;;6.08;93.64;99326.03;339973;28;4908;-71
2022/04/18 00:17:40;;;;;;;299.60;84.67;;;;;;;6.07;93.42;99319.13;344230;28;4971;-71
2022/04/18 00:17:51;;;;;;;303.75;87.00;;;;;;;6.07;92.97;99321.75;343647;28;2179;-71
2022/04/18 00:18:01;;;;;;;301.27;84.15;;;;;;;6.07;93.16;99319.13;345046;28;5368;-71
2022/04/18 00:18:11;;;;;;;301.40;85.63;;;;;;;6.06;93.34;99317.47;345905;28;1662;-71
2022/04/18 00:18:22;;;;;;;299.38;85.22;;;;;;;6.06;93.05;99322.66;347114;28;1655;-71
2022/04/18 00:18:32;;;;;;;300.90;86.93;;;;;;;6.07;93.23;99319.13;348651;28;1980;-71
2022/04/18 00:18:43;;;;;;;299.50;85.78;;;;;;;6.07;93.48;99319.13;347481;28;826;-71
2022/04/18 00:18:53;;;;;;;299.33;86.03;;;;;;;6.07;93.31;99316.53;345785;28;1707;-71
2022/04/18 00:19:03;;;;;;;299.80;85.80;;;;;;;6.06;93.03;99320.06;344018;28;1347;-71
2022/04/18 00:19:14;;;;;;;300.58;85.40;;;;;;;6.07;92.74;99323.47;344391;28;1707;-71
2022/04/18 00:19:24;;;;;;;300.17;85.43;;;;;;;6.08;92.90;99323.44;344709;28;1701;-70
2022/04/18 00:19:36;;;;;;;299.65;85.05;;;;;;;6.04;92.70;99319.25;346830;28;1628;-70
2022/04/18 00:19:47;;;;;;;299.92;84.78;;;;;;;6.05;92.52;99323.56;347167;28;1705;-70
2022/04/18 00:19:57;;;;;;;300.70;85.20;;;;;;;6.06;92.21;99317.47;348236;28;1283;-71
2022/04/18 00:20:08;;;;;;;300.63;84.93;;;;;;;6.07;92.07;99319.13;344830;28;1738;-71
2022/04/18 00:20:18;;;;;;;299.17;84.43;;;;;;;6.07;92.15;99323.47;346662;28;1490;-71
2022/04/18 00:20:29;;;;;;;300.00;85.50;;;;;;;6.07;92.56;99319.13;344809;28;1301;-71
2022/04/18 00:20:39;;;;;;;299.42;85.10;;;;;;;6.08;92.86;99320.00;340920;28;1310;-71
2022/04/18 00:20:49;;;;;;;299.03;84.83;;;;;;;6.06;92.35;99320.06;342700;28;1310;-71
2022/04/18 00:21:00;;;;;;;298.10;83.55;;;;;;;6.10;92.84;99323.41;347478;28;1696;-71
2022/04/18 00:21:10;;;;;;;299.60;85.13;;;;;;;6.09;92.59;99314.75;345673;28;1885;-71
2022/04/18 00:21:21;;;;;;;300.23;85.60;;;;;;;6.09;92.89;99327.75;343929;28;1660;-71
2022/04/18 00:21:31;;;;;;;300.33;85.40;;;;;;;6.10;92.77;99321.66;341886;28;1681;-71
2022/04/18 00:21:41;;;;;;;300.33;84.87;;;;;;;6.11;92.85;99325.09;342078;28;1229;-71
2022/04/18 00:21:52;;;;;;;300.20;84.13;;;;;;;6.10;92.90;99321.66;342386;28;1635;-71
2022/04/18 00:22:03;;;;;;;299.83;84.23;;;;;;;6.11;93.01;99323.34;343729;28;1172;-71
2022/04/18 00:22:13;;;;;;;299.77;83.93;;;;;;;6.11;92.84;99320.75;347157;28;849;-71
2022/04/18 00:22:24;;;;;;;298.30;83.43;;;;;;;6.11;92.75;99318.16;345542;28;1544;-71
2022/04/18 00:22:34;;;;;;;297.93;82.93;;;;;;;6.11;92.83;99320.75;346116;28;2446;-71
2022/04/18 00:22:45;;;;;;;297.70;82.73;;;;;;;6.09;92.39;99325.16;344610;28;1116;-71
2022/04/18 00:22:55;;;;;;;299.70;83.33;;;;;;;6.09;92.65;99322.53;343442;28;1881;-71
2022/04/18 00:23:05;;;;;;;300.33;84.07;;;;;;;6.09;92.38;99322.53;343377;28;1660;-71
2022/04/18 00:23:16;;;;;;;299.27;83.90;;;;;;;6.08;92.19;99326.03;343165;28;1589;-71
2022/04/18 00:23:26;;;;;;;299.33;84.75;;;;;;;6.10;92.30;99316.47;343479;28;1119;-71
2022/04/18 00:23:37;;;;;;;299.30;85.17;;;;;;;6.09;92.28;99327.75;343584;28;1449;-71
2022/04/18 00:23:47;;;;;;;298.92;84.10;;;;;;;6.08;92.40;99318.25;345861;28;967;-71
2022/04/18 00:23:57;;;;;;;298.67;84.33;;;;;;;6.10;92.39;99328.59;346092;28;1002;-71
2022/04/18 00:24:11;;;;;;;298.08;84.18;;;;;;;6.10;92.60;99323.41;349883;28;1761;-71
2022/04/18 00:24:22;;;;;;;299.42;85.47;;;;;;;6.10;93.01;99324.25;347518;28;1760;-71
2022/04/18 00:24:32;;;;;;;299.77;84.77;;;;;;;6.10;92.73;99326.00;346004;28;1764;-71
2022/04/18 00:24:43;;;;;;;300.13;84.43;;;;;;;6.09;92.83;99322.53;345476;28;898;-71
2022/04/18 00:24:53;;;;;;;299.30;84.33;;;;;;;6.07;92.61;99324.34;346401;28;1643;-71
2022/04/18 00:25:04;;;;;;;300.10;85.03;;;;;;;6.06;92.55;99322.66;345095;28;1392;-71
2022/04/18 00:25:14;;;;;;;299.20;83.82;;;;;;;6.08;92.39;99320.00;344722;28;983;-71
2022/04/18 00:25:24;;;;;;;299.85;83.65;;;;;;;6.07;92.28;99324.34;343293;28;1502;-71
2022/04/18 00:25:35;;;;;;;299.17;83.53;;;;;;;6.08;92.39;99320.00;344888;28;1706;-71
2022/04/18 00:25:46;;;;;;;300.00;83.88;;;;;;;6.06;92.04;99322.66;344768;28;1377;-71
2022/04/18 00:25:56;;;;;;;299.50;83.85;;;;;;;6.06;92.33;99322.66;345795;28;1018;-71
2022/04/18 00:26:07;;;;;;;300.50;84.40;;;;;;;6.03;91.96;99317.56;344429;28;2160;-71
2022/04/18 00:26:17;;;;;;;299.95;85.28;;;;;;;6.06;91.51;99321.81;341253;28;4924;-71
2022/04/18 00:26:27;;;;;;;300.03;84.90;;;;;;;6.05;91.62;99318.38;345652;28;2990;-71
2022/04/18 00:26:39;;;;;;;301.83;85.88;;;;;;;6.04;91.43;99314.06;345624;28;1763;-71
2022/04/18 00:26:50;;;;;;;302.67;87.13;;;;;;;6.05;91.80;99322.69;346298;28;5162;-71
2022/04/18 00:27:01;;;;;;;303.38;88.15;;;;;;;6.05;91.57;99320.97;345998;28;1540;-71
2022/04/18 00:27:11;;;;;;;300.35;86.40;;;;;;;6.03;91.45;99327.94;344667;28;893;-71
2022/04/18 00:27:21;;;;;;;298.60;84.47;;;;;;;6.03;91.66;99321.91;345319;28;2524;-72
2022/04/18 00:27:32;;;;;;;298.65;83.80;;;;;;;5.99;91.42;99321.13;345470;28;1507;-71
2022/04/18 00:27:42;;;;;;;298.90;83.40;;;;;;;5.99;91.53;99324.56;344790;28;976;-71
2022/04/18 00:27:53;;;;;;;298.63;83.82;;;;;;;5.99;91.53;99310.72;344564;28;1121;-71
2022/04/18 00:28:03;;;;;;;297.87;83.80;;;;;;;6.02;91.42;99327.97;344526;28;1452;-72
2022/04/18 00:28:15;;;;;;;297.95;84.47;;;;;;;6.01;91.56;99319.34;343325;28;1700;-71
2022/04/18 00:28:26;;;;;;;298.77;84.88;;;;;;;6.01;91.84;99319.34;346428;28;1634;-70
2022/04/18 00:28:36;;;;;;;299.30;85.20;;;;;;;6.02;91.83;99320.19;345067;28;1432;-69
2022/04/18 00:28:46;;;;;;;298.07;83.23;;;;;;;6.02;91.53;99315.84;344662;28;1396;-70
2022/04/18 00:28:57;;;;;;;297.30;82.93;;;;;;;6.04;91.68;99321.00;344711;28;1572;-70
2022/04/18 00:29:07;;;;;;;298.45;84.10;;;;;;;6.03;91.83;99322.75;344332;28;1659;-70
2022/04/18 00:29:18;;;;;;;299.97;85.30;;;;;;;6.05;91.96;99320.09;344654;28;1987;-70
2022/04/18 00:29:28;;;;;;;301.35;85.95;;;;;;;6.05;91.79;99315.75;348945;28;1049;-70
2022/04/18 00:29:39;;;;;;;300.77;84.63;;;;;;;6.06;91.84;99322.66;345204;28;1461;-70
2022/04/18 00:29:50;;;;;;;301.83;85.83;;;;;;;6.06;91.84;99320.06;347458;28;1636;-70
2022/04/18 00:30:01;;;;;;;301.15;86.15;;;;;;;6.07;92.23;99318.28;345913;28;1455;-70
2022/04/18 00:30:11;;;;;;;300.95;86.75;;;;;;;6.08;91.94;99320.00;346133;28;1198;-70
2022/04/18 00:30:22;;;;;;;300.25;86.28;;;;;;;6.07;92.12;99320.88;342785;28;1961;-70
2022/04/18 00:30:32;;;;;;;301.00;86.73;;;;;;;6.06;92.33;99319.22;342334;28;1279;-70
2022/04/18 00:30:43;;;;;;;300.83;86.07;;;;;;;6.06;92.25;99317.47;344818;28;930;-71
2022/04/18 00:30:53;;;;;;;302.37;86.33;;;;;;;6.05;91.98;99320.97;346100;28;1385;-71
2022/04/18 00:31:04;;;;;;;301.58;85.45;;;;;;;6.06;92.24;99319.22;346015;28;2247;-71
2022/04/18 00:31:15;;;;;;;301.88;86.15;;;;;;;6.05;92.38;99323.56;343085;28;1398;-71
2022/04/18 00:31:25;;;;;;;300.53;85.73;;;;;;;6.05;91.89;99313.16;346073;28;2171;-71
2022/04/18 00:31:35;;;;;;;301.33;85.93;;;;;;;6.05;92.09;99320.97;345020;28;1704;-71
2022/04/18 00:31:46;;;;;;;301.00;85.87;;;;;;;6.07;92.07;99315.69;343314;28;1322;-71
2022/04/18 00:31:56;;;;;;;300.95;85.90;;;;;;;6.07;91.90;99318.28;344432;28;1836;-71
2022/04/18 00:32:07;;;;;;;299.83;85.47;;;;;;;6.06;92.15;99312.28;344604;28;1515;-71
2022/04/18 00:32:18;;;;;;;300.23;84.65;;;;;;;6.07;92.15;99319.13;341772;28;1772;-71
2022/04/18 00:32:28;;;;;;;301.95;85.88;;;;;;;6.09;92.56;99326.91;342797;28;960;-71
2022/04/18 00:32:38;;;;;;;302.40;86.40;;;;;;;6.10;92.92;99313.88;342059;28;1834;-71
2022/04/18 00:32:49;;;;;;;302.23;87.38;;;;;;;6.10;92.38;99315.59;344631;28;1502;-71
2022/04/18 00:32:59;;;;;;;301.33;86.83;;;;;;;6.11;92.47;99320.75;344700;28;1537;-71
2022/04/18 00:33:09;;;;;;;300.07;86.00;;;;;;;6.11;92.45;99323.34;343460;28;1207;-71
2022/04/18 00:33:20;;;;;;;299.92;86.28;;;;;;;6.08;92.45;99325.19;344454;28;1543;-71
2022/04/18 00:33:30;;;;;;;299.47;85.97;;;;;;;6.07;92.30;99318.28;343767;28;1012;-71
2022/04/18 00:33:41;;;;;;;300.02;85.78;;;;;;;6.07;92.04;99319.13;346170;28;1241;-71
2022/04/18 00:33:51;;;;;;;299.53;84.53;;;;;;;6.06;92.17;99319.22;345813;28;1656;-71
2022/04/18 00:34:02;;;;;;;299.17;83.60;;;;;;;6.07;92.30;99320.88;344452;28;1408;-71
2022/04/18 00:34:14;;;;;;;299.20;84.60;;;;;;;6.06;91.89;99316.63;342184;28;1538;-71
2022/04/18 00:34:24;;;;;;;300.75;85.70;;;;;;;6.07;92.13;99323.47;345062;28;1414;-71
2022/04/18 00:34:35;;;;;;;300.70;86.73;;;;;;;6.06;92.23;99314.88;343353;28;1648;-71
2022/04/18 00:34:45;;;;;;;300.40;86.68;;;;;;;6.07;92.19;99319.13;343391;28;944;-71
2022/04/18 00:34:57;;;;;;;298.20;85.17;;;;;;;6.06;91.87;99309.69;345512;28;1555;-71
2022/04/18 00:35:07;;;;;;;298.35;84.55;;;;;;;6.08;92.24;99315.66;345929;28;1701;-71
2022/04/18 00:35:18;;;;;;;299.33;85.78;;;;;;;6.08;92.11;99317.41;343299;28;1440;-71
2022/04/18 00:35:28;;;;;;;300.80;86.83;;;;;;;6.07;91.99;99324.34;344253;28;3114;-71
2022/04/18 00:35:39;;;;;;;300.70;86.83;;;;;;;6.07;92.12;99319.13;346971;28;1687;-71
2022/04/18 00:35:51;;;;;;;302.85;87.63;;;;;;;6.07;91.73;99316.53;346083;28;1800;-71
2022/04/18 00:36:02;;;;;;;302.20;87.15;;;;;;;6.04;92.31;99314.06;345881;28;3215;-71
2022/04/18 00:36:12;;;;;;;302.77;87.40;;;;;;;6.05;92.26;99320.97;346035;28;2115;-70
2022/04/18 00:36:22;;;;;;;299.77;85.43;;;;;;;6.05;92.55;99313.16;346412;28;1779;-70
2022/04/18 00:36:33;;;;;;;300.93;85.90;;;;;;;6.05;92.52;99315.75;346021;28;1820;-70
2022/04/18 00:36:44;;;;;;;300.05;85.40;;;;;;;6.04;92.31;99316.66;344675;28;1274;-70
2022/04/18 00:36:55;;;;;;;299.30;83.93;;;;;;;6.06;92.09;99307.06;343287;28;1294;-70
2022/04/18 00:37:05;;;;;;;299.77;83.20;;;;;;;6.08;92.57;99320.84;345322;28;2104;-70
2022/04/18 00:37:16;;;;;;;302.00;84.57;;;;;;;6.10;92.26;99311.25;345678;28;1805;-70
2022/04/18 00:37:26;;;;;;;302.33;85.13;;;;;;;6.10;92.32;99319.06;346064;28;1767;-71
2022/04/18 00:37:39;;;;;;;301.23;84.53;;;;;;;6.10;92.34;99318.22;345964;28;1653;-71
2022/04/18 00:37:50;;;;;;;301.02;84.74;;;;;;;6.09;92.44;99314.75;344646;28;1432;-71
2022/04/18 00:38:00;;;;;;;300.20;85.13;;;;;;;6.09;92.35;99309.56;343281;28;1222;-71
2022/04/18 00:38:11;;;;;;;300.80;85.83;;;;;;;6.10;92.28;99316.47;342720;28;1550;-70
2022/04/18 00:38:22;;;;;;;300.60;86.33;;;;;;;6.09;92.01;99312.16;343387;28;1642;-70
2022/04/18 00:38:32;;;;;;;300.88;86.72;;;;;;;6.09;91.95;99311.31;343349;28;1850;-70
2022/04/18 00:38:44;;;;;;;299.60;85.73;;;;;;;6.11;91.83;99315.56;346263;28;1148;-70
2022/04/18 00:38:54;;;;;;;298.73;84.32;;;;;;;6.10;91.72;99313.88;346062;28;1686;-72
2022/04/18 00:39:05;;;;;;;299.38;85.22;;;;;;;6.09;91.64;99309.56;345865;28;1356;-71
2022/04/18 00:39:15;;;;;;;299.77;85.73;;;;;;;6.11;91.66;99310.38;344256;28;1200;-71
2022/04/18 00:39:25;;;;;;;300.35;85.50;;;;;;;6.11;91.31;99315.56;344661;28;1128;-71
2022/04/18 00:39:36;;;;;;;298.97;84.20;;;;;;;6.10;91.37;99313.88;345810;28;1452;-70
2022/04/18 00:39:46;;;;;;;299.17;83.43;;;;;;;6.10;91.59;99316.47;346139;28;869;-71
2022/04/18 00:39:57;;;;;;;300.07;83.93;;;;;;;6.11;91.12;99310.38;347277;28;1664;-71
2022/04/18 00:40:08;;;;;;;300.00;83.47;;;;;;;6.13;91.55;99305.13;345915;28;1401;-71
2022/04/18 00:40:18;;;;;;;298.38;82.75;;;;;;;6.14;91.65;99307.69;343308;28;1412;-71
2022/04/18 00:40:29;;;;;;;296.97;81.83;;;;;;;6.13;91.59;99308.59;344571;28;1874;-71
2022/04/18 00:40:39;;;;;;;298.25;82.15;;;;;;;6.14;91.62;99310.28;344578;28;1607;-72
2022/04/18 00:40:50;;;;;;;298.73;82.33;;;;;;;6.13;92.11;99311.19;345828;28;2099;-71
2022/04/18 00:41:00;;;;;;;298.85;83.05;;;;;;;6.15;91.76;99311.13;345984;28;1674;-71
2022/04/18 00:41:11;;;;;;;298.47;83.80;;;;;;;6.14;92.04;99310.28;342583;28;1835;-71
2022/04/18 00:41:21;;;;;;;298.67;83.88;;;;;;;6.12;92.17;99306.88;344757;28;1516;-71
2022/04/18 00:41:32;;;;;;;298.90;83.07;;;;;;;6.13;92.39;99311.19;344984;28;1217;-71
2022/04/18 00:41:42;;;;;;;299.10;82.10;;;;;;;6.13;92.67;99307.72;344749;28;933;-71
2022/04/18 00:41:52;;;;;;;299.67;82.68;;;;;;;6.12;92.62;99303.44;344086;28;2662;-71
2022/04/18 00:42:03;;;;;;;299.17;83.53;;;;;;;6.10;92.42;99308.66;345870;28;1255;-71
2022/04/18 00:42:14;;;;;;;297.85;83.80;;;;;;;6.12;92.82;99308.63;345284;28;892;-71
2022/04/18 00:42:24;;;;;;;296.80;84.73;;;;;;;6.12;92.74;99306.88;344402;28;1477;-71
2022/04/18 00:42:35;;;;;;;295.55;84.13;;;;;;;6.12;92.88;99303.44;343298;28;1509;-71
2022/04/18 00:42:45;;;;;;;296.20;83.80;;;;;;;6.11;92.77;99304.31;346265;28;1345;-71
2022/04/18 00:43:05;;;;;;;296.67;83.50;;;;;;;6.14;93.09;99310.28;348680;28;1574;-71
2022/04/18 00:43:15;;;;;;;295.60;83.32;;;;;;;6.14;92.78;99310.28;348574;28;1375;-71
2022/04/18 00:43:45;;;;;;;295.60;83.40;;;;;;;6.14;93.44;99309.44;346852;28;1590;-71
2022/04/18 00:43:56;;;;;;;295.65;82.40;;;;;;;6.15;93.32;99306.78;344499;28;1310;-71
2022/04/18 00:44:06;;;;;;;297.90;85.65;;;;;;;6.15;92.90;99306.78;345922;28;1354;-71
2022/04/18 00:44:16;;;;;;;298.70;86.20;;;;;;;6.15;93.34;99311.13;347376;28;1325;-71
2022/04/18 00:44:27;;;;;;;298.70;85.40;;;;;;;6.14;93.20;99304.25;345882;28;1491;-72
2022/04/18 00:44:37;;;;;;;299.40;84.23;;;;;;;6.14;93.33;99302.50;342469;28;4136;-72
2022/04/18 00:44:47;;;;;;;299.25;83.55;;;;;;;6.15;93.28;99306.78;342923;28;1866;-72
2022/04/18 00:44:58;;;;;;;300.13;84.63;;;;;;;6.13;93.49;99300.78;344536;28;1603;-72
2022/04/18 00:45:08;;;;;;;300.23;85.75;;;;;;;6.15;93.69;99306.78;344662;28;1649;-72
2022/04/18 00:45:19;;;;;;;299.47;85.83;;;;;;;6.17;93.68;99306.75;345693;28;3288;-72
2022/04/18 00:45:29;;;;;;;298.90;84.32;;;;;;;6.16;93.61;99302.44;343126;28;1503;-72
2022/04/18 00:45:40;;;;;;;298.50;83.33;;;;;;;6.17;93.88;99305.00;342077;28;940;-72
2022/04/18 00:45:50;;;;;;;299.30;83.68;;;;;;;6.18;93.83;99306.72;344784;28;935;-72
2022/04/18 00:46:00;;;;;;;299.70;84.77;;;;;;;6.19;94.14;99305.81;348695;28;1861;-72
2022/04/18 00:46:11;;;;;;;298.97;84.60;;;;;;;6.20;93.65;99304.91;345873;28;1512;-72
2022/04/18 00:46:21;;;;;;;300.05;86.10;;;;;;;6.21;93.38;99306.63;347230;28;1525;-72
2022/04/18 00:46:32;;;;;;;299.40;85.45;;;;;;;6.22;93.75;99300.53;344681;28;1679;-72
2022/04/18 00:46:42;;;;;;;299.70;85.13;;;;;;;6.21;93.91;99295.38;344844;28;2242;-72
2022/04/18 00:46:53;;;;;;;297.30;83.13;;;;;;;6.22;93.64;99304.88;344930;28;1826;-72
2022/04/18 00:47:03;;;;;;;297.90;83.40;;;;;;;6.20;93.72;99298.88;343280;28;1772;-72
2022/04/18 00:47:14;;;;;;;298.90;85.32;;;;;;;6.19;93.72;99298.03;344688;28;1610;-72
2022/04/18 00:47:24;;;;;;;300.53;85.87;;;;;;;6.20;93.76;99299.72;347373;28;1550;-72
2022/04/18 00:47:35;;;;;;;300.52;85.75;;;;;;;6.21;93.71;99298.84;343920;28;1893;-72
2022/04/18 00:47:45;;;;;;;300.27;85.33;;;;;;;6.22;93.84;99297.94;345984;28;1250;-72
2022/04/18 00:47:55;;;;;;;300.50;85.45;;;;;;;6.21;93.99;99301.44;346756;28;1831;-72
2022/04/18 00:48:06;;;;;;;299.70;85.03;;;;;;;6.22;93.60;99302.28;345836;28;1283;-71
2022/04/18 00:48:16;;;;;;;298.02;82.65;;;;;;;6.22;93.79;99299.69;345144;28;1229;-71
2022/04/18 00:48:27;;;;;;;297.70;83.07;;;;;;;6.22;94.07;99303.13;343390;28;1717;-71
2022/04/18 00:48:37;;;;;;;299.70;84.10;;;;;;;6.22;93.69;99302.28;342969;28;1319;-71
2022/04/18 00:48:48;;;;;;;301.47;85.83;;;;;;;6.20;93.63;99299.72;342008;28;2336;-71
2022/04/18 00:48:58;;;;;;;302.17;85.85;;;;;;;6.19;93.57;99303.22;344584;28;1632;-71
2022/04/18 00:49:08;;;;;;;301.00;85.87;;;;;;;6.19;93.73;99300.63;344400;28;1780;-71
2022/04/18 00:49:19;;;;;;;300.60;85.88;;;;;;;6.17;93.51;99299.81;343397;28;891;-71
2022/04/18 00:49:29;;;;;;;299.93;85.83;;;;;;;6.16;93.51;99298.09;344689;28;1614;-71
2022/04/18 00:49:40;;;;;;;299.48;85.18;;;;;;;6.18;93.44;99301.50;343444;28;814;-71
2022/04/18 00:49:50;;;;;;;300.67;86.27;;;;;;;6.18;93.49;99301.50;346719;28;817;-71
2022/04/18 00:50:01;;;;;;;301.90;85.78;;;;;;;6.19;93.46;99303.22;345960;28;1308;-71
2022/04/18 00:50:12;;;;;;;301.83;85.68;;;;;;;6.18;93.12;99301.50;344811;28;941;-71